Time;durP1;ratioP1;P1;durP2;ratioP2;P2;SDS_P1;SDS_P2;PMS_P1;PMS_P2;Temp;Humidity;BMP_temperature;BMP_pressure;BME280_temperature;BME280_humidity;BME280_pressure;Samples;Min_cycle;Max_cycle;Signal;HPM_P1;HPM_P2
2024/02/26 00:02:15;;;;;;;14.07;9.43;;;;;;;8.97;72.95;99506.09;5092372;28;20693;-65
2024/02/26 00:04:43;;;;;;;13.20;8.67;;;;;;;8.95;72.85;99507.84;5093851;28;20197;-69
2024/02/26 00:07:11;;;;;;;15.83;9.60;;;;;;;8.92;72.69;99506.16;5093836;28;20240;-66
2024/02/26 00:09:39;;;;;;;15.47;9.83;;;;;;;8.91;72.62;99508.72;5093791;28;20291;-68
2024/02/26 00:12:08;;;;;;;12.70;8.80;;;;;;;8.90;72.72;99501.88;5081532;28;20232;-65
2024/02/26 00:14:37;;;;;;;15.97;9.70;;;;;;;8.91;72.82;99495.88;5093582;28;20208;-65
2024/02/26 00:17:05;;;;;;;13.20;9.27;;;;;;;8.90;72.94;99486.47;5090079;28;20197;-66
2024/02/26 00:19:36;;;;;;;14.93;9.53;;;;;;;8.92;72.85;99490.72;5100865;28;20211;-65
2024/02/26 00:22:04;;;;;;;10.80;8.23;;;;;;;8.92;72.56;99490.72;5090453;28;20304;-63
2024/02/26 00:24:32;;;;;;;16.30;9.97;;;;;;;8.91;72.78;99494.19;5091242;28;20215;-64
2024/02/26 00:27:00;;;;;;;13.63;8.90;;;;;;;8.91;73.17;99495.88;5094615;28;20295;-64
2024/02/26 00:29:28;;;;;;;14.50;9.23;;;;;;;8.88;72.85;99488.25;5091849;28;20205;-65
2024/02/26 00:31:57;;;;;;;15.10;9.30;;;;;;;8.89;73.04;99497.63;5092369;28;20646;-65
2024/02/26 00:34:25;;;;;;;13.80;8.53;;;;;;;8.87;73.27;99502.81;5090421;28;20220;-64
2024/02/26 00:36:53;;;;;;;18.90;9.63;;;;;;;8.87;72.88;99496.78;5092754;28;20220;-65
2024/02/26 00:39:21;;;;;;;13.67;9.07;;;;;;;8.84;73.34;99496.84;5093321;28;20767;-66
2024/02/26 00:41:51;;;;;;;13.87;8.83;;;;;;;8.81;72.95;99491.75;5092700;28;20219;-66
2024/02/26 00:44:19;;;;;;;14.93;10.00;;;;;;;8.78;72.86;99489.22;5092485;28;20211;-67
2024/02/26 00:46:47;;;;;;;19.50;10.90;;;;;;;8.75;73.04;99487.53;5086088;28;20258;-64
2024/02/26 00:49:17;;;;;;;17.93;10.27;;;;;;;8.71;73.48;99486.72;5090891;28;20657;-66
2024/02/26 00:51:45;;;;;;;14.77;9.43;;;;;;;8.71;74.15;99485.88;5085066;28;20197;-65
2024/02/26 00:54:13;;;;;;;15.87;10.77;;;;;;;8.69;74.09;99488.47;5084376;28;20208;-65
2024/02/26 00:56:41;;;;;;;18.27;9.83;;;;;;;8.72;74.23;99490.13;5092437;28;20201;-65
2024/02/26 00:59:09;;;;;;;15.73;10.27;;;;;;;8.70;73.96;99479.91;5093720;28;20299;-64
2024/02/26 01:01:37;;;;;;;20.23;10.87;;;;;;;8.70;74.24;99485.03;5084511;28;20308;-65
2024/02/26 01:04:05;;;;;;;17.80;10.67;;;;;;;8.67;74.22;99489.34;5085777;28;20284;-63
2024/02/26 01:06:34;;;;;;;13.93;9.77;;;;;;;8.61;74.34;99484.28;5090454;28;20215;-64
2024/02/26 01:09:02;;;;;;;14.97;10.40;;;;;;;8.59;74.46;99489.47;5094726;28;20209;-67
2024/02/26 01:11:30;;;;;;;15.63;10.90;;;;;;;8.61;74.32;99485.13;5091889;28;20555;-67
2024/02/26 01:13:59;;;;;;;19.53;10.97;;;;;;;8.62;74.96;99493.72;5092131;28;20640;-64
2024/02/26 01:16:28;;;;;;;15.87;10.33;;;;;;;8.61;74.55;99495.41;5091778;28;20258;-66
2024/02/26 01:18:56;;;;;;;16.63;10.40;;;;;;;8.61;74.46;99485.13;5093017;28;20209;-67
2024/02/26 01:21:26;;;;;;;18.43;10.77;;;;;;;8.60;74.52;99483.44;5086507;28;20216;-65
2024/02/26 01:23:56;;;;;;;15.13;9.73;;;;;;;8.60;74.35;99485.16;5095767;28;20196;-65
2024/02/26 01:26:24;;;;;;;15.13;10.17;;;;;;;8.59;74.58;99486.88;5085195;28;20638;-65
2024/02/26 01:28:51;;;;;;;12.07;9.53;;;;;;;8.56;74.72;99475.81;5093627;28;20214;-63
2024/02/26 01:31:20;;;;;;;15.90;10.17;;;;;;;8.57;74.91;99477.50;5084394;28;20208;-65
2024/02/26 01:33:48;;;;;;;13.67;8.80;;;;;;;8.55;74.93;99477.53;5085416;28;20197;-64
2024/02/26 01:36:16;;;;;;;14.50;9.90;;;;;;;8.55;75.02;99477.53;5088787;28;20870;-66
2024/02/26 01:38:44;;;;;;;15.20;9.43;;;;;;;8.52;74.87;99479.28;5087937;28;20200;-64
2024/02/26 01:41:14;;;;;;;15.50;9.83;;;;;;;8.48;75.28;99481.03;5089397;28;20200;-65
2024/02/26 01:43:42;;;;;;;15.90;10.03;;;;;;;8.48;75.12;99486.16;5083441;28;20201;-65
2024/02/26 01:46:14;;;;;;;16.93;10.17;;;;;;;8.44;74.51;99489.66;5084489;28;20205;-66
2024/02/26 01:48:43;;;;;;;15.03;10.03;;;;;;;8.41;74.77;99489.69;5091206;28;20246;-64
2024/02/26 01:51:13;;;;;;;13.73;9.63;;;;;;;8.40;75.40;99483.69;5090562;28;20545;-65
2024/02/26 01:53:41;;;;;;;14.93;9.53;;;;;;;8.40;75.26;99488.84;5090843;28;20225;-65
2024/02/26 01:56:09;;;;;;;14.03;9.30;;;;;;;8.39;75.28;99484.53;5090860;28;20215;-64
2024/02/26 01:58:39;;;;;;;18.03;10.20;;;;;;;8.37;75.70;99482.84;5088597;28;20307;-65
2024/02/26 02:01:09;;;;;;;14.57;9.43;;;;;;;8.38;75.04;99487.16;5093652;28;20208;-64
2024/02/26 02:03:38;;;;;;;15.17;9.60;;;;;;;8.37;74.95;99485.41;5081282;28;20708;-64
2024/02/26 02:06:06;;;;;;;14.83;9.77;;;;;;;8.34;75.11;99486.28;5085334;28;20737;-65
2024/02/26 02:08:35;;;;;;;14.20;9.67;;;;;;;8.33;76.16;99484.59;5091331;28;20204;-65
2024/02/26 02:11:04;;;;;;;14.87;9.63;;;;;;;8.30;76.00;99474.38;5089485;28;20269;-68
2024/02/26 02:13:32;;;;;;;15.57;10.00;;;;;;;8.31;75.25;99481.19;5091354;28;20224;-65
2024/02/26 02:16:01;;;;;;;15.30;10.27;;;;;;;8.30;75.48;99474.38;5081465;28;20201;-65
2024/02/26 02:18:29;;;;;;;16.27;10.20;;;;;;;8.30;75.90;99476.09;5090132;28;20204;-64
2024/02/26 02:21:01;;;;;;;15.30;9.47;;;;;;;8.30;76.08;99483.78;5088232;28;20196;-65
2024/02/26 02:23:29;;;;;;;13.60;9.53;;;;;;;8.28;75.75;99480.38;5091638;28;20311;-63
2024/02/26 02:25:58;;;;;;;16.33;9.97;;;;;;;8.29;75.29;99487.22;5086863;28;20197;-65
2024/02/26 02:28:28;;;;;;;13.27;9.30;;;;;;;8.28;76.20;99488.06;5091235;28;20209;-65
2024/02/26 02:30:57;;;;;;;14.80;9.70;;;;;;;8.28;76.19;99485.50;5089349;28;20665;-67
2024/02/26 02:33:26;;;;;;;14.17;9.33;;;;;;;8.28;76.21;99490.63;5076050;28;20197;-65
2024/02/26 02:35:55;;;;;;;15.13;9.50;;;;;;;8.24;75.63;99485.53;5082129;28;20196;-65
2024/02/26 02:38:25;;;;;;;15.53;9.30;;;;;;;8.24;76.28;99490.66;5086499;28;20272;-63
2024/02/26 02:40:53;;;;;;;15.70;9.27;;;;;;;8.25;75.44;99491.53;5089134;28;20196;-65
2024/02/26 02:43:21;;;;;;;13.10;9.03;;;;;;;8.26;75.66;99500.09;5088722;28;20208;-66
2024/02/26 02:45:50;;;;;;;15.97;9.20;;;;;;;8.23;75.66;99494.09;5090844;28;20215;-65
2024/02/26 02:48:17;;;;;;;16.43;9.27;;;;;;;8.23;75.78;99488.97;5090178;28;20197;-64
2024/02/26 02:50:48;;;;;;;14.97;9.47;;;;;;;8.23;75.16;99499.25;5088893;28;20219;-68
2024/02/26 02:53:18;;;;;;;15.40;9.33;;;;;;;8.23;76.05;99504.38;5081708;28;20207;-65
2024/02/26 02:55:47;;;;;;;15.67;9.60;;;;;;;8.23;75.65;99500.97;5086346;28;20204;-65
2024/02/26 02:58:15;;;;;;;15.10;9.87;;;;;;;8.26;75.87;99502.66;5087837;28;20207;-66
2024/02/26 03:00:44;;;;;;;15.77;9.57;;;;;;;8.25;75.99;99506.94;5090875;28;20211;-64
2024/02/26 03:03:12;;;;;;;16.43;10.40;;;;;;;8.22;75.95;99507.81;5085702;28;20262;-65
2024/02/26 03:05:40;;;;;;;16.40;10.03;;;;;;;8.19;75.62;99507.84;5090549;28;20223;-64
2024/02/26 03:08:08;;;;;;;18.23;10.40;;;;;;;8.13;75.64;99512.19;5091258;28;20200;-66
2024/02/26 03:10:36;;;;;;;15.80;9.70;;;;;;;8.12;75.50;99516.47;5090632;28;20255;-64
2024/02/26 03:13:06;;;;;;;14.53;9.50;;;;;;;8.09;75.28;99519.06;5079296;28;20233;-66
2024/02/26 03:15:34;;;;;;;14.20;9.47;;;;;;;8.08;76.61;99514.81;5087035;28;20204;-66
2024/02/26 03:18:02;;;;;;;16.87;9.67;;;;;;;8.08;76.13;99519.09;5090026;28;20338;-66
2024/02/26 03:20:31;;;;;;;16.60;9.97;;;;;;;8.03;76.08;99514.00;5089496;28;20233;-65
2024/02/26 03:22:59;;;;;;;14.50;10.03;;;;;;;8.02;76.04;99511.44;5096593;28;20204;-60
2024/02/26 03:25:27;;;;;;;14.47;9.30;;;;;;;8.02;76.47;99524.28;5090547;28;20227;-61
2024/02/26 03:27:55;;;;;;;15.30;9.77;;;;;;;8.01;75.87;99517.44;5091889;28;20981;-66
2024/02/26 03:30:24;;;;;;;15.40;9.63;;;;;;;8.02;76.71;99520.00;5090452;28;20215;-65
2024/02/26 03:32:52;;;;;;;16.70;9.77;;;;;;;8.05;75.79;99526.81;5084131;28;20215;-64
2024/02/26 03:35:20;;;;;;;14.37;9.70;;;;;;;8.04;75.63;99523.41;5092787;28;20239;-63
2024/02/26 03:37:50;;;;;;;14.97;9.47;;;;;;;8.02;76.17;99514.00;5094267;28;20219;-64
2024/02/26 03:40:19;;;;;;;14.50;9.83;;;;;;;8.02;76.24;99529.41;5090002;28;20619;-65
2024/02/26 03:42:47;;;;;;;17.33;10.13;;;;;;;7.98;76.39;99520.88;5093984;28;20228;-63
2024/02/26 03:45:16;;;;;;;16.63;10.70;;;;;;;7.94;75.93;99521.78;5095461;28;20196;-68
2024/02/26 03:47:45;;;;;;;16.33;9.90;;;;;;;7.87;76.64;99510.72;5093955;28;20236;-66
2024/02/26 03:50:14;;;;;;;15.53;10.30;;;;;;;7.86;76.18;99521.00;5088991;28;20205;-61
2024/02/26 03:52:42;;;;;;;14.87;9.73;;;;;;;7.81;76.96;99507.38;5093548;28;20260;-64
2024/02/26 03:55:13;;;;;;;15.73;10.13;;;;;;;7.75;76.92;99510.84;5096082;28;20540;-60
2024/02/26 03:57:41;;;;;;;15.20;9.97;;;;;;;7.73;77.54;99508.31;5088043;28;20292;-63
2024/02/26 04:00:14;;;;;;;14.40;10.40;;;;;;;7.72;77.81;99516.84;5093578;28;20200;-66
2024/02/26 04:02:42;;;;;;;16.23;10.63;;;;;;;7.67;76.72;99525.44;5091894;28;20537;-64
2024/02/26 04:05:12;;;;;;;16.17;10.30;;;;;;;7.65;77.47;99520.31;5094088;28;20204;-66
2024/02/26 04:07:41;;;;;;;15.40;10.07;;;;;;;7.61;77.79;99526.34;5093532;28;20562;-63
2024/02/26 04:10:14;;;;;;;15.20;9.87;;;;;;;7.58;78.00;99523.78;5086389;28;20894;-63
2024/02/26 04:12:43;;;;;;;15.03;9.70;;;;;;;7.57;78.62;99523.81;5090412;28;20732;-62
2024/02/26 04:15:11;;;;;;;15.03;9.70;;;;;;;7.55;79.21;99518.72;5089462;28;20720;-61
2024/02/26 04:17:40;;;;;;;15.03;9.43;;;;;;;7.60;78.93;99516.94;5092464;28;20314;-61
2024/02/26 04:20:13;;;;;;;15.10;9.70;;;;;;;7.62;78.76;99517.81;5093166;28;20292;-62
2024/02/26 04:22:43;;;;;;;17.03;10.60;;;;;;;7.65;79.15;99514.34;5093308;28;20514;-63
2024/02/26 04:25:11;;;;;;;17.63;10.67;;;;;;;7.68;78.81;99527.13;5092475;28;20193;-63
2024/02/26 04:27:39;;;;;;;16.30;9.93;;;;;;;7.68;79.00;99525.44;5090621;28;20297;-61
2024/02/26 04:30:08;;;;;;;15.93;10.70;;;;;;;7.68;79.17;99511.75;5081592;28;20204;-62
2024/02/26 04:32:36;;;;;;;13.70;9.57;;;;;;;7.67;79.27;99515.19;5089203;28;20211;-62
2024/02/26 04:35:07;;;;;;;14.13;9.67;;;;;;;7.68;79.67;99517.72;5093554;28;20192;-63
2024/02/26 04:37:35;;;;;;;15.50;10.40;;;;;;;7.69;79.53;99511.72;5093206;28;20207;-61
2024/02/26 04:40:05;;;;;;;13.77;9.80;;;;;;;7.71;79.73;99512.59;5091762;28;20192;-62
2024/02/26 04:42:33;;;;;;;16.63;10.53;;;;;;;7.73;79.33;99515.13;5092039;28;20232;-63
2024/02/26 04:45:01;;;;;;;17.57;10.43;;;;;;;7.73;79.60;99512.56;5092981;28;20292;-62
2024/02/26 04:47:30;;;;;;;16.50;9.83;;;;;;;7.73;79.06;99518.56;5089253;28;20209;-61
2024/02/26 04:49:58;;;;;;;15.97;10.07;;;;;;;7.72;79.32;99518.56;5083529;28;20298;-61
2024/02/26 04:52:26;;;;;;;13.37;9.23;;;;;;;7.71;79.46;99515.16;5093260;28;20200;-63
2024/02/26 04:54:55;;;;;;;16.20;10.07;;;;;;;7.69;80.00;99514.28;5092545;28;20203;-61
2024/02/26 04:57:24;;;;;;;17.03;11.23;;;;;;;7.65;78.93;99515.19;5091568;28;20301;-61
2024/02/26 04:59:53;;;;;;;16.23;10.27;;;;;;;7.61;79.17;99528.06;5090229;28;20231;-63
2024/02/26 05:02:21;;;;;;;15.13;10.43;;;;;;;7.58;79.74;99521.22;5088838;28;20215;-62
2024/02/26 05:04:49;;;;;;;15.67;9.60;;;;;;;7.56;79.91;99520.41;5085882;28;20248;-63
2024/02/26 05:07:17;;;;;;;16.97;9.90;;;;;;;7.56;80.67;99517.00;5081511;28;20201;-62
2024/02/26 05:09:49;;;;;;;17.87;10.73;;;;;;;7.56;80.06;99525.53;5092360;28;20201;-62
2024/02/26 05:12:17;;;;;;;15.90;10.20;;;;;;;7.58;80.45;99525.50;5089925;28;20228;-63
2024/02/26 05:14:47;;;;;;;17.47;10.77;;;;;;;7.56;80.19;99520.41;5092093;28;20193;-61
2024/02/26 05:17:14;;;;;;;17.30;10.80;;;;;;;7.55;80.66;99528.09;5091700;28;20204;-62
2024/02/26 05:19:42;;;;;;;16.93;10.63;;;;;;;7.53;80.76;99533.25;5092426;28;20208;-63
2024/02/26 05:22:11;;;;;;;17.33;10.37;;;;;;;7.56;81.08;99538.34;5084330;28;20232;-61
2024/02/26 05:24:39;;;;;;;13.93;10.23;;;;;;;7.60;81.75;99534.91;5085259;28;20227;-61
2024/02/26 05:27:07;;;;;;;14.90;10.07;;;;;;;7.62;82.18;99540.88;5090087;28;20200;-61
2024/02/26 05:29:35;;;;;;;16.87;11.40;;;;;;;7.66;81.68;99537.41;5091926;28;20204;-62
2024/02/26 05:32:06;;;;;;;17.50;11.03;;;;;;;7.68;81.75;99537.41;5083108;28;20284;-62
2024/02/26 05:34:34;;;;;;;15.17;10.37;;;;;;;7.72;81.53;99545.03;5089589;28;20200;-62
2024/02/26 05:37:02;;;;;;;19.57;10.90;;;;;;;7.74;81.06;99547.63;5085251;28;20197;-61
2024/02/26 05:39:30;;;;;;;17.07;11.60;;;;;;;7.75;81.74;99552.72;5090603;28;20270;-60
2024/02/26 05:41:58;;;;;;;18.00;10.67;;;;;;;7.79;81.76;99555.25;5091085;28;20317;-60
2024/02/26 05:44:28;;;;;;;16.63;10.93;;;;;;;7.79;81.39;99548.41;5076567;28;20220;-60
2024/02/26 05:46:56;;;;;;;15.07;10.40;;;;;;;7.85;81.17;99552.66;5090814;28;20201;-61
2024/02/26 05:49:25;;;;;;;16.10;10.67;;;;;;;7.88;81.10;99553.47;5097269;28;20215;-62
2024/02/26 05:51:54;;;;;;;15.17;10.67;;;;;;;7.91;81.86;99543.16;5087642;28;20661;-61
2024/02/26 05:54:22;;;;;;;16.80;11.20;;;;;;;7.95;81.12;99549.13;5088604;28;20246;-59
2024/02/26 05:56:53;;;;;;;15.60;10.93;;;;;;;7.96;80.78;99540.59;5088095;28;20209;-62
2024/02/26 05:59:21;;;;;;;18.23;10.97;;;;;;;7.98;80.92;99549.09;5084856;28;20208;-61
2024/02/26 06:01:50;;;;;;;16.77;10.47;;;;;;;8.05;80.58;99553.31;5081650;28;20736;-64
2024/02/26 06:04:19;;;;;;;16.00;10.33;;;;;;;8.11;81.04;99555.00;5092029;28;20208;-61
2024/02/26 06:06:49;;;;;;;16.73;10.70;;;;;;;8.16;80.82;99555.78;5091043;28;20208;-66
2024/02/26 06:09:17;;;;;;;17.77;10.27;;;;;;;8.22;80.87;99558.31;5092614;28;20204;-62
2024/02/26 06:11:45;;;;;;;16.27;10.23;;;;;;;8.27;80.42;99556.53;5081843;28;20263;-61
2024/02/26 06:14:18;;;;;;;14.23;10.27;;;;;;;8.34;80.23;99559.88;5088293;28;20204;-61
2024/02/26 06:16:45;;;;;;;14.87;9.97;;;;;;;8.41;79.95;99557.28;5088090;28;20653;-62
2024/02/26 06:19:14;;;;;;;15.33;10.83;;;;;;;8.45;79.88;99552.97;5083004;28;20726;-61
2024/02/26 06:21:42;;;;;;;14.63;10.43;;;;;;;8.49;79.76;99557.19;5082931;28;20582;-61
2024/02/26 06:24:11;;;;;;;15.30;10.07;;;;;;;8.56;79.57;99560.53;5090645;28;20223;-61
2024/02/26 06:26:39;;;;;;;15.50;10.83;;;;;;;8.61;79.28;99564.75;5089426;28;20208;-62
2024/02/26 06:29:07;;;;;;;17.50;10.33;;;;;;;8.65;79.10;99558.72;5084810;28;20650;-60
2024/02/26 06:31:35;;;;;;;16.33;10.10;;;;;;;8.71;78.29;99566.34;5090544;28;20287;-61
2024/02/26 06:34:03;;;;;;;13.60;9.80;;;;;;;8.80;78.14;99567.09;5090855;28;20207;-63
2024/02/26 06:36:33;;;;;;;17.67;10.50;;;;;;;8.84;77.53;99572.19;5080574;28;20658;-61
2024/02/26 06:39:01;;;;;;;16.33;10.07;;;;;;;8.86;77.88;99570.44;5088016;28;20683;-62
2024/02/26 06:41:31;;;;;;;14.70;9.23;;;;;;;8.89;78.44;99572.97;5088094;28;20201;-63
2024/02/26 06:43:59;;;;;;;16.67;10.03;;;;;;;8.91;77.87;99578.97;5089853;28;20224;-65
2024/02/26 06:46:28;;;;;;;16.20;9.67;;;;;;;8.93;78.08;99568.66;5084840;28;20204;-62
2024/02/26 06:48:56;;;;;;;13.00;10.17;;;;;;;8.97;77.92;99570.31;5083446;28;20741;-62
2024/02/26 06:51:25;;;;;;;15.23;10.37;;;;;;;9.01;77.58;99569.41;5090249;28;20617;-65
2024/02/26 06:53:53;;;;;;;15.00;10.50;;;;;;;9.04;77.75;99566.81;5089381;28;20287;-63
2024/02/26 06:56:21;;;;;;;16.07;10.10;;;;;;;9.10;77.34;99574.44;5087050;28;20213;-64
2024/02/26 06:58:50;;;;;;;14.87;10.23;;;;;;;9.20;78.12;99570.00;5089869;28;20733;-63
2024/02/26 07:01:19;;;;;;;19.43;11.10;;;;;;;9.46;77.74;99572.22;5088784;28;20688;-63
2024/02/26 07:03:47;;;;;;;13.80;10.27;;;;;;;9.77;77.17;99572.59;5085022;28;20197;-63
2024/02/26 07:06:15;;;;;;;14.77;10.20;;;;;;;10.06;76.11;99572.13;5093686;28;20215;-64
2024/02/26 07:08:43;;;;;;;14.27;10.40;;;;;;;10.32;75.55;99574.28;5094510;28;20204;-63
2024/02/26 07:11:12;;;;;;;15.30;10.47;;;;;;;10.52;74.39;99576.47;5095169;28;20680;-63
2024/02/26 07:13:40;;;;;;;16.13;10.40;;;;;;;10.73;72.91;99579.53;5094047;28;20224;-64
2024/02/26 07:16:11;;;;;;;14.80;9.63;;;;;;;10.82;71.77;99571.59;5089356;28;20625;-65
2024/02/26 07:18:40;;;;;;;15.43;10.63;;;;;;;10.91;71.54;99576.59;5094659;28;20207;-64
2024/02/26 07:21:08;;;;;;;14.13;9.83;;;;;;;11.04;71.18;99580.59;5088422;28;20201;-67
2024/02/26 07:23:36;;;;;;;16.63;11.00;;;;;;;11.06;70.50;99583.16;5093796;28;20204;-64
2024/02/26 07:26:04;;;;;;;14.23;10.20;;;;;;;11.05;70.95;99579.72;5093500;28;20228;-67
2024/02/26 07:28:33;;;;;;;17.97;10.37;;;;;;;11.04;70.92;99584.91;5092393;28;20273;-63
2024/02/26 07:31:01;;;;;;;19.20;10.60;;;;;;;10.90;70.59;99587.78;5084787;28;20657;-63
2024/02/26 07:33:30;;;;;;;15.53;11.37;;;;;;;10.72;71.30;99589.00;5075405;28;20615;-64
2024/02/26 07:35:58;;;;;;;14.73;10.93;;;;;;;10.61;71.71;99594.34;5086272;28;20232;-64
2024/02/26 07:38:26;;;;;;;15.73;11.73;;;;;;;10.57;72.83;99595.28;5089711;28;20288;-62
2024/02/26 07:41:09;;;;;;;13.87;10.20;;;;;;;10.63;72.91;99595.16;5088143;28;20197;-64
2024/02/26 07:43:37;;;;;;;15.17;10.70;;;;;;;10.78;73.07;99594.00;5076674;28;20204;-64
2024/02/26 07:46:05;;;;;;;16.00;10.33;;;;;;;10.96;72.25;99595.38;5082619;28;20232;-63
2024/02/26 07:48:34;;;;;;;16.13;10.50;;;;;;;11.19;72.26;99601.78;5087817;28;20607;-62
2024/02/26 07:51:04;;;;;;;18.17;11.60;;;;;;;11.41;71.38;99599.59;5078800;28;20200;-64
2024/02/26 07:53:32;;;;;;;15.53;10.87;;;;;;;11.53;70.76;99592.44;5080187;28;20579;-63
2024/02/26 07:56:00;;;;;;;18.40;10.97;;;;;;;11.48;69.72;99598.56;5084404;28;20228;-65
2024/02/26 07:58:28;;;;;;;15.80;10.93;;;;;;;11.36;69.76;99602.28;5083988;28;20196;-64
2024/02/26 08:00:56;;;;;;;13.70;10.40;;;;;;;11.26;71.13;99603.34;5084622;28;20808;-64
2024/02/26 08:03:27;;;;;;;17.03;11.63;;;;;;;11.33;71.84;99604.91;5090377;28;20223;-65
2024/02/26 08:05:56;;;;;;;13.87;10.83;;;;;;;11.78;72.38;99604.75;5093056;28;20262;-67
2024/02/26 08:08:26;;;;;;;14.93;10.43;;;;;;;12.44;71.12;99604.00;5086785;28;20208;-64
2024/02/26 08:10:54;;;;;;;17.40;10.80;;;;;;;13.13;68.34;99601.25;5089535;28;20246;-63
2024/02/26 08:13:22;;;;;;;15.33;10.57;;;;;;;13.71;66.25;99602.09;5080869;28;21074;-66
2024/02/26 08:15:51;;;;;;;14.23;10.17;;;;;;;14.20;64.19;99603.09;5074525;28;20200;-65
2024/02/26 08:18:19;;;;;;;11.57;9.83;;;;;;;14.32;61.23;99602.66;5087505;28;20933;-61
2024/02/26 08:20:48;;;;;;;10.13;9.10;;;;;;;14.17;61.40;99604.03;5077275;28;20201;-65
2024/02/26 08:23:18;;;;;;;13.57;9.50;;;;;;;13.80;61.60;99600.97;5089754;28;20193;-63
2024/02/26 08:25:46;;;;;;;13.17;9.87;;;;;;;13.41;62.70;99602.16;5089502;28;20209;-61
2024/02/26 08:28:17;;;;;;;14.57;10.60;;;;;;;12.99;62.71;99606.81;5089500;28;20937;-61
2024/02/26 08:30:45;;;;;;;14.50;10.97;;;;;;;12.66;64.91;99616.34;5092011;28;20219;-61
2024/02/26 08:33:13;;;;;;;13.50;10.60;;;;;;;12.39;65.98;99618.78;5084402;28;20307;-63
2024/02/26 08:35:42;;;;;;;13.37;10.33;;;;;;;12.19;66.81;99613.28;5088618;28;20201;-60
2024/02/26 08:38:10;;;;;;;17.27;11.37;;;;;;;11.99;67.95;99618.91;5091319;28;20740;-63
2024/02/26 08:40:39;;;;;;;17.23;12.03;;;;;;;11.84;68.94;99617.56;5090442;28;20207;-60
2024/02/26 08:43:08;;;;;;;17.80;11.17;;;;;;;11.74;69.88;99626.34;5091204;28;20207;-60
2024/02/26 08:45:36;;;;;;;17.20;11.80;;;;;;;11.63;70.45;99626.59;5091039;28;20232;-60
2024/02/26 08:48:04;;;;;;;14.90;11.13;;;;;;;11.59;71.10;99624.97;5091394;28;20288;-61
2024/02/26 08:50:32;;;;;;;16.67;11.83;;;;;;;11.57;71.87;99632.75;5091352;28;20201;-64
2024/02/26 08:53:01;;;;;;;15.60;11.53;;;;;;;11.58;72.22;99628.44;5091120;28;20201;-61
2024/02/26 08:55:34;;;;;;;17.33;11.90;;;;;;;11.57;72.80;99626.75;5090279;28;20196;-62
2024/02/26 08:58:03;;;;;;;14.70;11.33;;;;;;;11.58;73.05;99624.13;5090256;28;20200;-62
2024/02/26 09:00:31;;;;;;;17.37;11.90;;;;;;;11.60;73.34;99621.53;5090698;28;20205;-61
2024/02/26 09:02:59;;;;;;;16.20;12.33;;;;;;;11.58;73.93;99623.28;5090792;28;20239;-64
2024/02/26 09:05:32;;;;;;;15.47;11.77;;;;;;;11.60;73.79;99626.69;5090374;28;20208;-59
2024/02/26 09:08:00;;;;;;;13.60;11.13;;;;;;;11.59;73.84;99624.97;5091408;28;20228;-61
2024/02/26 09:10:28;;;;;;;14.23;11.70;;;;;;;11.57;74.08;99625.03;5091896;28;20231;-59
2024/02/26 09:12:56;;;;;;;14.77;11.33;;;;;;;11.60;74.67;99627.53;5089092;28;20238;-60
2024/02/26 09:15:25;;;;;;;14.17;11.40;;;;;;;11.65;74.81;99632.59;5086568;28;20201;-62
2024/02/26 09:17:53;;;;;;;16.17;12.10;;;;;;;11.75;75.03;99630.66;5086363;28;20306;-58
2024/02/26 09:20:23;;;;;;;15.43;12.20;;;;;;;11.88;74.69;99631.25;5091103;28;20204;-60
2024/02/26 09:22:52;;;;;;;13.43;11.47;;;;;;;11.96;73.98;99629.31;5092041;28;20250;-59
2024/02/26 09:25:20;;;;;;;13.17;11.53;;;;;;;12.04;74.08;99638.59;5090271;28;20216;-61
2024/02/26 09:27:48;;;;;;;14.07;10.60;;;;;;;12.12;74.00;99640.16;5090836;28;20200;-60
2024/02/26 09:30:16;;;;;;;13.27;11.17;;;;;;;12.21;73.31;99634.75;5081885;28;20243;-63
2024/02/26 09:32:48;;;;;;;12.47;11.03;;;;;;;12.26;73.09;99632.88;5087073;28;20243;-63
2024/02/26 09:35:17;;;;;;;14.03;11.47;;;;;;;12.23;72.57;99623.50;5083486;28;20204;-61
2024/02/26 09:37:45;;;;;;;14.30;11.63;;;;;;;12.26;72.65;99632.88;5087362;28;20271;-60
2024/02/26 09:40:13;;;;;;;13.30;10.90;;;;;;;12.29;72.84;99643.13;5072339;28;20202;-62
2024/02/26 09:42:44;;;;;;;13.77;11.03;;;;;;;12.28;72.46;99637.13;5089205;28;20636;-62
2024/02/26 09:45:19;;;;;;;14.03;11.03;;;;;;;12.27;72.25;99632.00;5087235;28;20241;-62
2024/02/26 09:47:50;;;;;;;14.17;11.40;;;;;;;12.28;73.16;99637.13;5097132;28;20200;-60
2024/02/26 09:50:22;;;;;;;11.60;10.30;;;;;;;12.38;73.71;99636.91;5091262;28;20199;-60
2024/02/26 09:52:52;;;;;;;19.20;12.07;;;;;;;12.43;72.53;99635.03;5088764;28;20196;-60
2024/02/26 09:55:20;;;;;;;16.13;11.67;;;;;;;12.43;72.46;99635.03;5089679;28;20236;-62
2024/02/26 09:57:52;;;;;;;22.37;11.90;;;;;;;12.48;72.81;99634.06;5090442;28;20581;-62
2024/02/26 10:00:22;;;;;;;13.10;10.57;;;;;;;12.54;72.03;99641.63;5088914;28;20211;-60
2024/02/26 10:02:53;;;;;;;13.77;11.30;;;;;;;12.54;71.81;99648.53;5087432;28;20208;-61
2024/02/26 10:05:21;;;;;;;14.10;10.90;;;;;;;12.51;71.71;99649.47;5090329;28;20208;-60
2024/02/26 10:07:49;;;;;;;13.70;11.07;;;;;;;12.47;71.91;99652.16;5090428;28;20716;-64
2024/02/26 10:10:18;;;;;;;14.23;11.20;;;;;;;12.46;72.09;99650.47;5089277;28;20261;-61
2024/02/26 10:12:46;;;;;;;14.57;10.83;;;;;;;12.49;72.93;99658.16;5085667;28;20232;-62
2024/02/26 10:15:14;;;;;;;11.40;10.20;;;;;;;12.51;72.47;99661.53;5086069;28;20197;-61
2024/02/26 10:17:43;;;;;;;12.33;10.83;;;;;;;12.34;72.20;99656.81;5088985;28;20197;-68
2024/02/26 10:20:15;;;;;;;14.27;11.60;;;;;;;12.16;73.57;99652.09;5075057;28;20228;-62
2024/02/26 10:22:45;;;;;;;13.97;10.70;;;;;;;12.11;74.12;99659.09;5089539;28;20208;-65
2024/02/26 10:25:13;;;;;;;10.80;9.67;;;;;;;12.11;73.65;99652.19;5090119;28;20240;-68
2024/02/26 10:27:42;;;;;;;13.47;9.90;;;;;;;12.14;73.60;99664.19;5090803;28;20301;-64
2024/02/26 10:30:21;;;;;;;12.10;10.73;;;;;;;12.07;73.21;99664.31;5090787;28;20223;-66
2024/02/26 10:32:51;;;;;;;12.73;11.10;;;;;;;11.88;73.70;99657.91;5087473;28;20216;-64
2024/02/26 10:35:21;;;;;;;11.43;10.23;;;;;;;11.70;74.60;99669.44;5089331;28;20223;-62
2024/02/26 10:37:50;;;;;;;12.07;10.87;;;;;;;11.55;74.89;99668.06;5089612;28;20199;-67
2024/02/26 10:40:18;;;;;;;11.37;9.97;;;;;;;11.49;75.73;99665.63;5080279;28;20209;-66
2024/02/26 10:42:46;;;;;;;12.57;10.20;;;;;;;11.52;76.65;99669.84;5088997;28;20212;-66
2024/02/26 10:45:14;;;;;;;12.43;10.37;;;;;;;11.58;76.04;99669.72;5088089;28;20205;-68
2024/02/26 10:47:43;;;;;;;11.37;10.00;;;;;;;11.53;75.74;99681.91;5086283;28;20220;-67
2024/02/26 10:50:14;;;;;;;13.53;10.97;;;;;;;11.47;75.94;99664.78;5090163;28;20649;-65
2024/02/26 10:52:44;;;;;;;10.97;9.53;;;;;;;11.54;76.28;99673.25;5085619;28;20209;-64
2024/02/26 10:55:18;;;;;;;10.53;9.47;;;;;;;11.54;75.49;99674.09;5089964;28;20275;-65
2024/02/26 10:57:48;;;;;;;10.00;9.00;;;;;;;11.51;75.21;99673.31;5090421;28;20283;-67
2024/02/26 11:00:17;;;;;;;10.07;9.07;;;;;;;11.44;75.61;99671.75;5080128;28;20239;-64
2024/02/26 11:02:47;;;;;;;10.43;8.77;;;;;;;11.43;75.28;99659.75;5090333;28;20657;-63
2024/02/26 11:05:16;;;;;;;8.97;8.07;;;;;;;11.37;75.42;99661.56;5084865;28;20249;-67
2024/02/26 11:07:46;;;;;;;8.37;7.47;;;;;;;11.24;75.41;99654.13;5092249;28;20711;-65
2024/02/26 11:10:17;;;;;;;8.73;7.83;;;;;;;11.18;76.11;99659.41;5084851;28;20279;-63
2024/02/26 11:12:47;;;;;;;10.90;8.80;;;;;;;11.15;76.53;99660.28;5090310;28;20247;-63
2024/02/26 11:15:16;;;;;;;10.20;8.70;;;;;;;11.16;76.95;99655.97;5089161;28;20649;-64
2024/02/26 11:17:49;;;;;;;10.33;8.63;;;;;;;11.27;77.39;99652.34;5089690;28;20211;-65
2024/02/26 11:20:20;;;;;;;10.00;8.73;;;;;;;11.37;76.46;99652.97;5088162;28;20204;-65
2024/02/26 11:22:49;;;;;;;8.57;7.67;;;;;;;11.48;76.31;99660.47;5077009;28;20197;-65
2024/02/26 11:25:18;;;;;;;8.13;6.90;;;;;;;11.59;75.59;99655.94;5086952;28;20273;-65
2024/02/26 11:27:50;;;;;;;8.47;7.57;;;;;;;11.64;74.95;99658.44;5086418;28;20673;-65
2024/02/26 11:30:19;;;;;;;8.10;7.30;;;;;;;11.64;74.13;99653.28;5081681;28;20197;-68
2024/02/26 11:32:48;;;;;;;7.37;6.60;;;;;;;11.70;75.05;99653.13;5088420;28;20692;-64
2024/02/26 11:35:18;;;;;;;7.67;6.87;;;;;;;12.02;75.21;99650.69;5078084;28;20209;-64